Time;durP1;ratioP1;P1;durP2;ratioP2;P2;SDS_P1;SDS_P2;PMS_P1;PMS_P2;Temp;Humidity;BMP_temperature;BMP_pressure;BME280_temperature;BME280_humidity;BME280_pressure;Samples;Min_cycle;Max_cycle;Signal;HPM_P1;HPM_P2
2021/11/11 00:01:49;;;;;;;9.00;4.82;;;;;;;-0.10;100.00;101097.38;4973322;28;20065;-61
2021/11/11 00:04:35;;;;;;;7.30;3.92;;;;;;;-0.09;100.00;101104.38;4965465;28;20058;-67
2021/11/11 00:07:19;;;;;;;12.60;5.43;;;;;;;-0.09;100.00;101094.66;4972930;28;20171;-63
2021/11/11 00:10:07;;;;;;;9.68;4.80;;;;;;;-0.10;100.00;101095.59;4968547;28;20057;-61
2021/11/11 00:12:54;;;;;;;10.90;5.35;;;;;;;-0.12;100.00;101093.91;4971232;28;20082;-63
2021/11/11 00:15:39;;;;;;;9.30;4.50;;;;;;;-0.21;100.00;101099.53;4973407;28;20057;-68
2021/11/11 00:18:26;;;;;;;13.93;4.80;;;;;;;-0.28;100.00;101101.50;4966390;28;20054;-62
2021/11/11 00:21:11;;;;;;;10.10;4.82;;;;;;;-0.28;100.00;101098.00;4972031;28;20108;-62
2021/11/11 00:23:56;;;;;;;9.40;3.90;;;;;;;-0.28;100.00;101093.59;4971278;28;20468;-68
2021/11/11 00:26:42;;;;;;;12.75;5.85;;;;;;;-0.25;100.00;101106.66;4971246;28;20133;-62
2021/11/11 00:29:28;;;;;;;14.05;5.45;;;;;;;-0.21;100.00;101107.44;4972597;28;20054;-61
2021/11/11 00:32:13;;;;;;;8.65;4.55;;;;;;;-0.17;100.00;101106.41;4972677;28;20125;-63
2021/11/11 00:34:59;;;;;;;9.52;4.82;;;;;;;-0.16;100.00;101110.78;4972607;28;20054;-61
2021/11/11 00:37:45;;;;;;;14.30;5.03;;;;;;;-0.25;100.00;101103.19;4972119;28;20065;-69
2021/11/11 00:40:31;;;;;;;7.63;4.25;;;;;;;-0.32;100.00;101099.91;4971855;28;20062;-63
2021/11/11 00:43:18;;;;;;;14.43;5.47;;;;;;;-0.22;100.00;101101.31;4972816;28;20420;-62
2021/11/11 00:46:04;;;;;;;11.80;5.10;;;;;;;-0.16;100.00;101097.56;4972501;28;20520;-64
2021/11/11 00:48:49;;;;;;;12.02;5.60;;;;;;;-0.15;100.00;101088.75;4973377;28;20132;-63
2021/11/11 00:51:36;;;;;;;18.70;7.07;;;;;;;-0.30;100.00;101096.28;4973118;28;20121;-66
2021/11/11 00:54:21;;;;;;;11.63;5.18;;;;;;;-0.32;100.00;101084.94;4964052;28;20062;-60
2021/11/11 00:57:07;;;;;;;12.87;6.07;;;;;;;-0.30;100.00;101082.25;4973171;28;20125;-62
2021/11/11 00:59:52;;;;;;;9.90;5.75;;;;;;;-0.28;100.00;101079.56;4971698;28;20079;-63
2021/11/11 01:02:38;;;;;;;13.50;5.60;;;;;;;-0.33;100.00;101080.59;4973561;28;21552;-62
2021/11/11 01:05:24;;;;;;;12.15;5.90;;;;;;;-0.34;100.00;101083.28;4971098;28;20542;-68
2021/11/11 01:08:11;;;;;;;14.23;6.57;;;;;;;-0.30;100.00;101084.88;4970888;28;20054;-63
2021/11/11 01:10:57;;;;;;;13.65;6.28;;;;;;;-0.34;100.00;101086.78;4968198;28;20062;-63
2021/11/11 01:13:42;;;;;;;11.23;4.78;;;;;;;-0.41;100.00;101087.03;4972852;28;20073;-64
2021/11/11 01:16:27;;;;;;;13.17;6.37;;;;;;;-0.45;100.00;101085.44;4963208;28;20062;-63
2021/11/11 01:19:12;;;;;;;11.20;5.75;;;;;;;-0.46;100.00;101089.84;4972993;28;20105;-63
2021/11/11 01:21:58;;;;;;;13.60;6.67;;;;;;;-0.55;100.00;101081.41;4971731;28;20066;-65
2021/11/11 01:24:44;;;;;;;14.05;5.63;;;;;;;-0.66;100.00;101076.50;4976521;28;20057;-62
2021/11/11 01:27:29;;;;;;;10.23;4.95;;;;;;;-0.69;100.00;101077.47;4970336;28;20075;-61
2021/11/11 01:30:16;;;;;;;11.00;6.47;;;;;;;-0.53;100.00;101075.16;4975347;28;20062;-64
2021/11/11 01:33:01;;;;;;;;;;;;;;;-0.57;100.00;101073.53;4973159;28;20057;-62
2021/11/11 01:35:46;;;;;;;10.25;5.40;;;;;;;-0.64;100.00;101072.88;4967089;28;19929;-61
2021/11/11 01:38:31;;;;;;;9.85;4.60;;;;;;;-0.64;100.00;101059.69;4970478;28;20113;-63
2021/11/11 01:41:18;;;;;;;12.87;6.10;;;;;;;-0.75;100.00;101063.63;4970863;28;20070;-61
2021/11/11 01:44:03;;;;;;;12.85;5.93;;;;;;;-0.76;100.00;101061.91;4972931;28;20061;-67
2021/11/11 01:46:49;;;;;;;15.80;5.63;;;;;;;-0.78;100.00;101056.69;4966889;28;20077;-61
2021/11/11 01:49:33;;;;;;;12.98;6.25;;;;;;;-0.83;100.00;101058.59;4972120;28;20065;-65
2021/11/11 01:52:19;;;;;;;11.52;5.70;;;;;;;-0.89;100.00;101064.94;4970632;28;20105;-63
2021/11/11 01:55:05;;;;;;;9.23;5.37;;;;;;;-0.86;100.00;101063.97;4971686;28;20066;-66
2021/11/11 01:57:51;;;;;;;11.15;6.25;;;;;;;-0.88;100.00;101053.50;4971664;28;20105;-66
2021/11/11 02:00:40;;;;;;;13.25;6.07;;;;;;;-0.95;100.00;101059.91;4962386;28;20145;-63
2021/11/11 02:03:26;;;;;;;13.48;6.22;;;;;;;-0.99;100.00;101057.41;4971993;28;20201;-63
2021/11/11 02:06:12;;;;;;;13.40;5.95;;;;;;;-0.92;100.00;101046.63;4969815;28;20062;-62
2021/11/11 02:08:57;;;;;;;13.70;5.70;;;;;;;-0.94;100.00;101045.81;4970582;28;20404;-69
2021/11/11 02:11:44;;;;;;;10.57;5.45;;;;;;;-0.90;100.00;101044.78;4966855;28;20058;-62
2021/11/11 02:14:30;;;;;;;11.02;5.65;;;;;;;-0.94;100.00;101044.94;4971832;28;20129;-63
2021/11/11 02:17:15;;;;;;;9.98;4.70;;;;;;;-0.99;100.00;101047.72;4971303;28;20054;-62
2021/11/11 02:20:05;;;;;;;11.65;5.60;;;;;;;-1.04;99.96;101044.41;4970304;28;20058;-61
2021/11/11 02:22:51;;;;;;;10.38;6.03;;;;;;;-1.08;100.00;101037.47;4961842;28;20129;-60
2021/11/11 02:25:36;;;;;;;10.50;6.30;;;;;;;-1.11;100.00;101039.38;4972880;28;20158;-63
2021/11/11 02:28:21;;;;;;;10.57;5.43;;;;;;;-1.16;100.00;101036.91;4969411;28;20125;-62
2021/11/11 02:31:06;;;;;;;10.63;5.82;;;;;;;-1.20;100.00;101033.47;4970789;28;20057;-63
2021/11/11 02:33:54;;;;;;;8.87;5.10;;;;;;;-1.22;100.00;101035.31;4961615;28;20070;-61
2021/11/11 02:36:54;;;;;;;9.40;4.53;;;;;;;-1.21;100.00;101036.16;4974226;28;20313;-68
2021/11/11 02:39:40;;;;;;;10.98;5.80;;;;;;;-1.22;100.00;101039.72;4973360;28;20074;-64
2021/11/11 02:42:25;;;;;;;13.32;6.18;;;;;;;-1.18;100.00;101033.47;4970511;28;20070;-65
2021/11/11 02:45:13;;;;;;;11.75;6.25;;;;;;;-1.20;100.00;101022.94;4968989;28;20069;-62
2021/11/11 02:50:36;;;;;;;13.10;6.97;;;;;;;-1.25;100.00;101027.50;5026473;28;20053;-60
2021/11/11 02:53:24;;;;;;;13.05;6.97;;;;;;;-1.22;100.00;101023.91;5029207;28;20060;-64
2021/11/11 02:56:09;;;;;;;12.65;6.53;;;;;;;-1.27;100.00;101018.81;5029584;28;20599;-60
2021/11/11 02:58:54;;;;;;;13.40;7.45;;;;;;;-1.27;100.00;101016.19;5028412;28;20060;-60
2021/11/11 03:01:39;;;;;;;12.90;6.05;;;;;;;-1.29;100.00;101022.41;5028477;28;20081;-63
2021/11/11 03:04:24;;;;;;;14.85;7.32;;;;;;;-1.35;100.00;101012.91;5029094;28;20526;-61
2021/11/11 03:07:09;;;;;;;11.65;6.35;;;;;;;-1.37;100.00;101020.03;5025237;28;20072;-65
2021/11/11 03:09:56;;;;;;;17.27;8.13;;;;;;;-1.42;100.00;101021.94;5032735;28;20072;-61
2021/11/11 03:12:42;;;;;;;20.30;9.13;;;;;;;-1.49;100.00;101025.69;5031905;28;20545;-63
2021/11/11 03:15:30;;;;;;;17.35;7.65;;;;;;;-1.43;100.00;101019.34;5031865;28;20183;-62
2021/11/11 03:18:15;;;;;;;13.82;6.93;;;;;;;-1.47;100.00;101032.63;5031414;28;20510;-62
2021/11/11 03:21:00;;;;;;;16.83;6.85;;;;;;;-1.45;100.00;101027.28;5032527;28;20060;-61
2021/11/11 03:23:45;;;;;;;11.50;6.15;;;;;;;-1.50;100.00;101019.56;5021394;28;20057;-62
2021/11/11 03:26:31;;;;;;;11.90;6.30;;;;;;;-1.48;100.00;101020.34;5029714;28;20076;-63
2021/11/11 03:29:17;;;;;;;14.77;5.97;;;;;;;-1.54;100.00;101017.94;5033022;28;20184;-62
2021/11/11 03:32:03;;;;;;;15.45;6.63;;;;;;;-1.56;100.00;101017.09;5031380;28;20060;-62
2021/11/11 03:34:49;;;;;;;9.88;4.63;;;;;;;-1.61;100.00;101020.81;5032938;28;20076;-61
2021/11/11 03:37:34;;;;;;;16.77;7.38;;;;;;;-1.57;100.00;101023.28;5032604;28;20527;-62
2021/11/11 03:40:23;;;;;;;14.38;6.45;;;;;;;-1.63;100.00;101031.38;5029790;28;20063;-61
2021/11/11 03:43:10;;;;;;;10.73;4.90;;;;;;;-1.65;100.00;101024.44;5031646;28;20180;-62
2021/11/11 03:45:55;;;;;;;13.15;6.50;;;;;;;-1.70;100.00;101031.63;5022353;28;20139;-63
2021/11/11 03:48:40;;;;;;;13.32;5.85;;;;;;;-1.74;100.00;101024.72;5031147;28;20052;-60
2021/11/11 03:51:25;;;;;;;12.15;5.82;;;;;;;-1.72;100.00;101023.78;5030576;28;20075;-62
2021/11/11 03:54:13;;;;;;;13.30;6.47;;;;;;;-1.71;100.00;101027.25;5032580;28;20553;-62
2021/11/11 03:56:58;;;;;;;15.27;7.82;;;;;;;-1.77;100.00;101036.22;5032160;28;20150;-63
2021/11/11 03:59:45;;;;;;;12.80;6.47;;;;;;;-1.73;100.00;101031.72;5031394;28;20139;-61
2021/11/11 04:02:30;;;;;;;13.07;6.30;;;;;;;-1.77;100.00;101033.59;5031954;28;20187;-62
2021/11/11 04:05:15;;;;;;;14.82;7.60;;;;;;;-1.71;100.00;101027.25;5028768;28;20195;-62
2021/11/11 04:08:00;;;;;;;14.90;7.30;;;;;;;-1.70;100.00;101043.00;5031944;28;20553;-61
2021/11/11 04:10:45;;;;;;;15.93;6.55;;;;;;;-1.78;100.00;101038.00;5026515;28;20130;-68
2021/11/11 04:13:31;;;;;;;16.70;7.38;;;;;;;-1.84;100.00;101032.03;5031142;28;20061;-60
2021/11/11 04:16:17;;;;;;;11.27;6.43;;;;;;;-1.86;100.00;101037.34;5030670;28;20467;-63
2021/11/11 04:19:03;;;;;;;16.42;7.32;;;;;;;-1.89;100.00;101037.44;5030034;28;20048;-59
2021/11/11 04:21:49;;;;;;;17.10;7.38;;;;;;;-1.87;100.00;101040.03;5028348;28;20119;-61
2021/11/11 04:24:35;;;;;;;15.83;6.50;;;;;;;-1.80;100.00;101033.66;5028009;28;20060;-62
2021/11/11 04:27:24;;;;;;;17.58;7.35;;;;;;;-1.76;100.00;101032.69;5029540;28;20060;-62
2021/11/11 04:30:16;;;;;;;20.48;9.07;;;;;;;-1.75;100.00;101030.91;5029338;28;20146;-64
2021/11/11 04:33:05;;;;;;;18.27;9.15;;;;;;;-1.79;100.00;101036.25;5028162;28;20178;-61
2021/11/11 04:35:55;;;;;;;23.80;8.48;;;;;;;-1.81;100.00;101034.56;5025967;28;20068;-62
2021/11/11 04:38:51;;;;;;;17.90;7.40;;;;;;;-1.89;100.00;101032.19;5027671;28;20064;-63
2021/11/11 04:41:48;;;;;;;19.73;8.17;;;;;;;-1.89;100.00;101032.19;5025165;28;20570;-63
2021/11/11 04:44:38;;;;;;;16.00;7.95;;;;;;;-1.85;100.00;101028.56;5029762;28;20311;-61
2021/11/11 04:47:35;;;;;;;20.55;8.55;;;;;;;-1.81;100.00;101026.69;5028672;28;20092;-61
2021/11/11 04:50:45;;;;;;;21.83;8.40;;;;;;;-1.92;100.00;101032.25;5028713;28;20197;-62
2021/11/11 05:00:01;;;;;;;17.95;8.30;;;;;;;-2.07;100.00;101027.47;5024926;28;20633;-60
2021/11/11 05:03:02;;;;;;;27.80;9.73;;;;;;;-2.03;100.00;101029.09;5028312;28;20060;-62
2021/11/11 05:05:48;;;;;;;20.33;9.88;;;;;;;-1.99;100.00;101028.09;5027975;28;20131;-62
2021/11/11 05:08:33;;;;;;;18.35;8.27;;;;;;;-2.04;100.00;101018.63;5027465;28;20092;-60
2021/11/11 05:11:19;;;;;;;16.23;7.38;;;;;;;-2.01;100.00;101031.66;5030379;28;20064;-60
2021/11/11 05:14:04;;;;;;;19.88;8.48;;;;;;;-2.05;100.00;101023.00;5027250;28;20060;-59
2021/11/11 05:16:49;;;;;;;19.60;8.73;;;;;;;-2.07;100.00;101017.81;5026088;28;20166;-60
2021/11/11 05:19:34;;;;;;;31.70;11.32;;;;;;;-2.16;100.00;101012.81;5028574;28;20052;-61
2021/11/11 05:22:21;;;;;;;29.30;11.52;;;;;;;-2.23;100.00;101015.69;5026647;28;20203;-61
2021/11/11 05:25:07;;;;;;;28.63;11.18;;;;;;;-2.30;100.00;101014.97;5025586;28;20407;-62
2021/11/11 05:27:52;;;;;;;26.40;11.17;;;;;;;-2.29;100.00;101016.69;5029776;28;20056;-62
2021/11/11 05:30:38;;;;;;;34.13;12.77;;;;;;;-2.31;100.00;101005.38;5028429;28;20142;-64
2021/11/11 05:33:23;;;;;;;33.60;14.60;;;;;;;-2.30;100.00;101016.75;5027442;28;20134;-62
2021/11/11 05:36:08;;;;;;;36.70;15.40;;;;;;;-2.14;100.00;101013.63;5025595;28;20518;-61
2021/11/11 05:38:54;;;;;;;40.57;16.40;;;;;;;-2.02;100.00;101015.03;5024827;28;20138;-62
2021/11/11 05:41:40;;;;;;;46.35;15.65;;;;;;;-1.94;100.00;101012.16;5031923;28;20299;-60
2021/11/11 05:44:26;;;;;;;35.53;14.40;;;;;;;-1.84;100.00;101022.38;5032209;28;20068;-61
2021/11/11 05:47:11;;;;;;;35.05;13.95;;;;;;;-1.69;100.00;101022.81;5031929;28;20514;-59
2021/11/11 05:49:57;;;;;;;25.92;11.52;;;;;;;-1.75;100.00;101028.28;5031892;28;20060;-62
2021/11/11 05:52:42;;;;;;;31.95;11.95;;;;;;;-1.81;100.00;101024.91;5032246;28;20407;-60
2021/11/11 05:55:28;;;;;;;22.30;10.60;;;;;;;-1.90;100.00;101040.09;5031903;28;20138;-59
2021/11/11 05:58:14;;;;;;;31.27;12.30;;;;;;;-1.96;100.00;101029.78;5031925;28;20053;-61
2021/11/11 06:00:59;;;;;;;26.35;10.45;;;;;;;-1.97;100.00;101033.31;5031796;28;20154;-61
2021/11/11 06:03:44;;;;;;;22.70;10.35;;;;;;;-1.99;100.00;101045.66;5022080;28;20118;-59
2021/11/11 06:06:29;;;;;;;24.95;10.32;;;;;;;-2.05;100.00;101044.06;5017879;28;20060;-62
2021/11/11 06:09:15;;;;;;;29.00;11.15;;;;;;;-2.13;100.00;101046.94;5025014;28;20340;-59
2021/11/11 06:12:01;;;;;;;23.17;11.13;;;;;;;-2.14;100.00;101049.59;5014653;28;20535;-63
2021/11/11 06:14:46;;;;;;;28.80;12.55;;;;;;;-2.04;100.00;101063.34;5030694;28;20146;-61
2021/11/11 06:17:32;;;;;;;21.15;8.95;;;;;;;-2.07;100.00;101064.28;5031564;28;20448;-61
2021/11/11 06:20:19;;;;;;;20.60;9.17;;;;;;;-2.12;100.00;101064.44;5032261;28;20627;-63
2021/11/11 06:23:04;;;;;;;22.52;10.18;;;;;;;-2.09;100.00;101063.47;5016371;28;20303;-63
2021/11/11 06:25:49;;;;;;;24.35;10.75;;;;;;;-2.04;100.00;101056.31;5030756;28;20202;-60
2021/11/11 06:28:36;;;;;;;31.48;12.45;;;;;;;-1.88;100.00;101060.22;5031696;28;20104;-65
2021/11/11 06:31:21;;;;;;;24.80;10.93;;;;;;;-1.80;100.00;101060.84;5031867;28;20056;-63
2021/11/11 06:34:06;;;;;;;22.83;11.65;;;;;;;-1.72;100.00;101062.38;5031553;28;20060;-62
2021/11/11 06:36:51;;;;;;;26.30;10.68;;;;;;;-1.67;100.00;101061.31;5031538;28;20061;-61
2021/11/11 06:39:37;;;;;;;22.80;11.30;;;;;;;-1.73;100.00;101064.16;5031409;28;20059;-64
2021/11/11 06:42:22;;;;;;;24.70;9.60;;;;;;;-1.71;100.00;101066.75;5035932;28;20080;-60
2021/11/11 06:45:11;;;;;;;28.13;11.60;;;;;;;-1.77;100.00;101073.06;5035617;28;20111;-63
2021/11/11 06:47:57;;;;;;;28.95;11.00;;;;;;;-1.80;100.00;101068.72;5034779;28;20423;-61
2021/11/11 06:50:43;;;;;;;27.17;11.75;;;;;;;-1.72;100.00;101071.16;5035769;28;20198;-61
2021/11/11 06:53:28;;;;;;;22.50;10.48;;;;;;;-1.62;100.00;101069.97;5036112;28;20061;-62
2021/11/11 06:56:13;;;;;;;25.13;10.07;;;;;;;-1.59;100.00;101064.59;5034910;28;20107;-61
2021/11/11 06:58:58;;;;;;;26.67;10.63;;;;;;;-1.51;100.00;101059.09;5035560;28;20055;-61
2021/11/11 07:01:44;;;;;;;24.00;10.93;;;;;;;-1.48;100.00;101064.25;5035475;28;20150;-63
2021/11/11 07:04:29;;;;;;;24.80;11.90;;;;;;;-1.45;100.00;101063.28;5035259;28;20553;-60
2021/11/11 07:07:14;;;;;;;17.13;8.73;;;;;;;-1.36;100.00;101065.66;5034792;28;20283;-63
2021/11/11 07:09:59;;;;;;;33.13;12.13;;;;;;;-1.37;100.00;101066.56;5028144;28;20075;-63
2021/11/11 07:12:45;;;;;;;26.88;12.07;;;;;;;-1.39;100.00;101074.50;5035092;28;20056;-64
2021/11/11 07:15:30;;;;;;;33.13;12.57;;;;;;;-1.34;100.00;101075.22;5035203;28;20410;-61
2021/11/11 07:18:17;;;;;;;29.90;11.37;;;;;;;-1.17;100.00;101079.09;5034965;28;20060;-61
2021/11/11 07:21:02;;;;;;;24.40;10.95;;;;;;;-1.03;100.00;101076.88;5035546;28;20061;-62
2021/11/11 07:23:47;;;;;;;28.67;11.48;;;;;;;-1.02;100.00;101078.59;5034609;28;20419;-61
2021/11/11 07:26:32;;;;;;;27.65;11.82;;;;;;;-0.96;100.00;101081.00;5014703;28;20120;-63
2021/11/11 07:29:17;;;;;;;22.58;10.13;;;;;;;-0.89;100.00;101078.13;5015102;28;20052;-62
2021/11/11 07:32:03;;;;;;;25.88;10.32;;;;;;;-0.80;100.00;101091.91;5015303;28;20064;-64
2021/11/11 07:34:49;;;;;;;24.55;10.07;;;;;;;-0.72;100.00;101103.91;5015114;28;20139;-62
2021/11/11 07:37:35;;;;;;;25.23;11.45;;;;;;;-0.69;100.00;101097.69;5014753;28;20068;-62
2021/11/11 07:40:23;;;;;;;24.27;12.13;;;;;;;-0.59;100.00;101096.47;5014922;28;20073;-63
2021/11/11 07:43:08;;;;;;;25.95;12.43;;;;;;;-0.45;100.00;101094.22;5015245;28;20049;-63
2021/11/11 07:45:53;;;;;;;35.15;15.77;;;;;;;-0.42;100.00;101085.31;5014655;28;20068;-64
2021/11/11 07:48:38;;;;;;;47.90;16.83;;;;;;;-0.40;100.00;101081.72;5014370;28;20057;-62
2021/11/11 07:51:24;;;;;;;44.00;17.10;;;;;;;-0.35;100.00;101076.28;5014803;28;20127;-62
2021/11/11 07:54:09;;;;;;;;;;;;;;;-0.18;100.00;101073.88;5014625;28;20057;-62
2021/11/11 07:56:55;;;;;;;36.13;13.93;;;;;;;-0.07;100.00;101070.84;5014123;28;19960;-63
2021/11/11 07:59:41;;;;;;;48.88;15.30;;;;;;;0.07;100.00;101073.84;5014512;28;20060;-62
2021/11/11 08:02:26;;;;;;;40.40;14.85;;;;;;;0.19;100.00;101075.16;5014539;28;20060;-62
2021/11/11 08:05:15;;;;;;;25.33;11.93;;;;;;;0.30;100.00;101086.16;5028589;28;20055;-63
2021/11/11 08:08:01;;;;;;;32.47;13.55;;;;;;;0.40;100.00;101081.41;5033972;28;20165;-63
2021/11/11 08:10:46;;;;;;;39.10;15.25;;;;;;;0.49;100.00;101075.78;5034108;28;20076;-64
2021/11/11 08:13:32;;;;;;;30.02;12.75;;;;;;;0.61;100.00;101074.44;5024799;28;20143;-63
2021/11/11 08:16:17;;;;;;;35.43;14.60;;;;;;;0.79;100.00;101071.03;5013913;28;20060;-62
2021/11/11 08:19:02;;;;;;;27.53;12.90;;;;;;;0.95;100.00;101076.53;5014312;28;20061;-63
2021/11/11 08:21:47;;;;;;;34.88;15.55;;;;;;;1.09;100.00;101077.72;5013821;28;20065;-63
2021/11/11 08:24:40;;;;;;;40.28;16.73;;;;;;;1.24;100.00;101070.94;5018692;28;20140;-62
2021/11/11 08:27:26;;;;;;;44.55;17.40;;;;;;;1.40;100.00;101061.41;5033526;28;20138;-62
2021/11/11 08:30:14;;;;;;;32.55;14.73;;;;;;;1.54;100.00;101070.50;5033740;28;20484;-63
2021/11/11 08:32:59;;;;;;;42.10;16.13;;;;;;;1.67;100.00;101064.66;5032073;28;20063;-63
2021/11/11 08:35:46;;;;;;;42.10;17.15;;;;;;;1.88;100.00;101065.47;5029310;28;20461;-63
2021/11/11 08:38:31;;;;;;;48.47;20.25;;;;;;;2.10;100.00;101070.63;5033234;28;20060;-61
2021/11/11 08:41:17;;;;;;;46.42;19.73;;;;;;;2.27;100.00;101070.75;5033469;28;20056;-64
2021/11/11 08:44:05;;;;;;;;;;;;;;;2.48;100.00;101084.75;5033681;28;20060;-62
2021/11/11 08:46:53;;;;;;;46.65;20.02;;;;;;;2.67;100.00;101090.06;5032764;28;19975;-62
2021/11/11 08:49:38;;;;;;;37.70;18.25;;;;;;;2.88;100.00;101093.47;5032960;28;20526;-63
2021/11/11 08:52:24;;;;;;;35.53;14.43;;;;;;;3.06;100.00;101087.25;5080314;22;20056;-64
2021/11/11 08:55:09;;;;;;;38.03;16.02;;;;;;;3.25;100.00;101091.66;5032632;28;20670;-64
2021/11/11 08:57:58;;;;;;;38.80;17.63;;;;;;;3.41;99.55;101096.09;5032625;28;20111;-64
2021/11/11 09:00:46;;;;;;;41.25;17.30;;;;;;;3.58;99.76;101095.25;5032915;28;20052;-65
2021/11/11 09:03:30;;;;;;;39.28;17.33;;;;;;;3.78;97.76;101087.09;5040623;28;20331;-65
2021/11/11 09:06:16;;;;;;;30.98;15.18;;;;;;;4.07;98.00;101080.25;5032227;28;20056;-65
2021/11/11 09:09:01;;;;;;;28.42;14.88;;;;;;;4.35;96.39;101087.56;5032658;28;20056;-64
2021/11/11 09:11:47;;;;;;;29.65;12.90;;;;;;;4.47;96.34;101087.84;5032773;28;20060;-65
2021/11/11 09:14:33;;;;;;;33.15;14.82;;;;;;;4.67;95.48;101083.13;5032755;28;20473;-65
2021/11/11 09:17:18;;;;;;;26.45;13.00;;;;;;;4.85;94.11;101081.22;5033085;28;20525;-65
2021/11/11 09:20:05;;;;;;;35.47;12.33;;;;;;;5.20;90.21;101086.31;5033715;28;20430;-64
2021/11/11 09:22:51;;;;;;;25.75;13.07;;;;;;;5.14;93.34;101086.69;5033047;28;20164;-65
2021/11/11 09:25:37;;;;;;;27.73;13.10;;;;;;;5.41;88.95;101084.22;5033269;28;20060;-64
2021/11/11 09:28:22;;;;;;;24.53;11.97;;;;;;;5.46;88.54;101091.00;5032916;28;20430;-64
2021/11/11 09:31:10;;;;;;;29.00;12.88;;;;;;;5.67;87.01;101085.31;5032772;28;20053;-65
2021/11/11 09:33:55;;;;;;;28.38;13.55;;;;;;;5.46;91.34;101093.66;5032663;28;20065;-65
2021/11/11 09:36:39;;;;;;;25.67;12.52;;;;;;;5.42;92.70;101080.59;5032315;28;20076;-64
2021/11/11 09:39:25;;;;;;;27.00;11.15;;;;;;;5.48;93.59;101089.09;5032334;28;20058;-65
2021/11/11 09:42:10;;;;;;;20.55;11.43;;;;;;;5.54;92.83;101080.72;5032089;28;20053;-65
2021/11/11 09:44:55;;;;;;;27.50;12.65;;;;;;;5.65;90.48;101071.22;5032316;28;20119;-64
2021/11/11 09:47:42;;;;;;;24.17;13.02;;;;;;;5.73;92.60;101079.63;5032246;28;20060;-65
2021/11/11 09:50:29;;;;;;;24.23;13.65;;;;;;;5.81;92.83;101067.56;5032117;28;20049;-63
2021/11/11 09:53:20;;;;;;;27.60;12.60;;;;;;;6.00;90.87;101072.63;5032474;28;20526;-64
2021/11/11 09:59:08;;;;;;;24.05;11.48;;;;;;;6.34;86.70;101066.06;5012588;28;20522;-65
2021/11/11 10:01:55;;;;;;;21.67;11.18;;;;;;;6.39;88.46;101063.09;5012101;28;20266;-65
2021/11/11 10:04:42;;;;;;;22.55;11.32;;;;;;;6.49;85.52;101066.03;5030056;28;20061;-66
2021/11/11 10:07:27;;;;;;;22.63;10.98;;;;;;;6.61;85.89;101070.56;5031737;28;20060;-65
2021/11/11 10:10:30;;;;;;;21.63;11.35;;;;;;;6.74;83.79;101060.81;5032320;28;20057;-66
2021/11/11 10:13:17;;;;;;;20.30;10.68;;;;;;;6.91;85.33;101065.06;5024944;28;20056;-66
2021/11/11 10:16:20;;;;;;;19.85;10.02;;;;;;;6.99;80.30;101060.09;5011452;28;20148;-63
2021/11/11 10:19:06;;;;;;;19.70;10.35;;;;;;;7.13;78.62;101061.84;5012313;28;20197;-65
2021/11/11 10:21:56;;;;;;;23.53;9.23;;;;;;;7.28;79.13;101058.13;5011975;28;20061;-65
2021/11/11 10:24:45;;;;;;;21.85;8.65;;;;;;;7.48;82.69;101065.66;5012213;28;20052;-65
2021/11/11 10:27:36;;;;;;;22.45;9.93;;;;;;;7.78;79.43;101056.50;5012031;28;20057;-65
2021/11/11 10:30:23;;;;;;;19.27;9.55;;;;;;;7.90;77.69;101061.84;5011781;28;20052;-65
2021/11/11 10:33:12;;;;;;;23.42;9.98;;;;;;;7.92;77.50;101059.91;5012037;28;20571;-64
2021/11/11 10:35:57;;;;;;;19.90;10.10;;;;;;;8.04;75.83;101063.53;5011687;28;20057;-64
2021/11/11 10:38:44;;;;;;;16.98;9.73;;;;;;;8.17;73.41;101058.19;5012260;28;20065;-64
2021/11/11 10:41:32;;;;;;;19.20;10.27;;;;;;;8.09;78.04;101057.88;5012402;28;20147;-65
2021/11/11 10:44:22;;;;;;;21.85;10.20;;;;;;;8.24;74.44;101043.41;5032455;28;20422;-65
2021/11/11 10:47:11;;;;;;;19.95;9.80;;;;;;;8.22;76.72;101048.03;5025441;28;20188;-66
2021/11/11 10:49:58;;;;;;;18.30;8.32;;;;;;;8.27;76.12;101037.84;5031437;28;20053;-64
2021/11/11 10:52:45;;;;;;;19.38;9.20;;;;;;;8.31;76.96;101044.69;5030837;28;20065;-64
2021/11/11 10:55:33;;;;;;;19.98;8.90;;;;;;;8.45;75.52;101046.41;5031712;28;20060;-65
2021/11/11 10:58:20;;;;;;;17.65;9.35;;;;;;;8.58;72.55;101039.19;5031085;28;20051;-66
2021/11/11 11:01:07;;;;;;;20.30;9.48;;;;;;;8.69;70.71;101038.41;5031323;28;20131;-62
2021/11/11 11:03:57;;;;;;;19.63;10.38;;;;;;;8.75;70.97;101035.25;5031137;28;20538;-65
2021/11/11 11:06:42;;;;;;;23.27;10.45;;;;;;;8.88;71.80;101044.13;5031130;28;20056;-64
2021/11/11 11:09:27;;;;;;;18.70;9.05;;;;;;;8.91;72.45;101030.50;5031335;28;20087;-65
2021/11/11 11:12:31;;;;;;;19.10;9.35;;;;;;;9.03;69.75;101036.75;5031520;28;20530;-66
2021/11/11 11:15:43;;;;;;;15.93;8.38;;;;;;;9.00;70.47;101032.50;5011341;28;20526;-63
2021/11/11 11:18:31;;;;;;;20.60;10.38;;;;;;;9.02;69.51;101021.66;5011988;28;20061;-66
2021/11/11 11:21:18;;;;;;;14.23;8.65;;;;;;;9.11;67.80;101017.41;5011538;28;20515;-66
2021/11/11 11:24:06;;;;;;;16.42;9.35;;;;;;;9.19;67.93;101021.22;5011654;28;20072;-65
2021/11/11 11:26:53;;;;;;;21.42;8.45;;;;;;;9.25;66.74;101014.56;5011101;28;20135;-64
2021/11/11 11:29:43;;;;;;;18.70;10.82;;;;;;;9.26;67.13;101009.09;5014957;28;20053;-65
2021/11/11 11:32:32;;;;;;;18.98;9.43;;;;;;;9.30;67.38;101010.56;5014703;28;20064;-65
2021/11/11 11:35:21;;;;;;;19.98;9.45;;;;;;;9.21;68.04;101003.22;5014961;28;20090;-67
2021/11/11 11:38:22;;;;;;;21.80;10.23;;;;;;;9.30;68.26;101007.88;5026313;28;20052;-66
2021/11/11 11:41:27;;;;;;;19.08;8.98;;;;;;;9.36;68.47;101001.22;5033632;28;20188;-66
2021/11/11 11:44:34;;;;;;;18.83;9.07;;;;;;;9.43;68.00;100996.22;5028720;28;20060;-64
2021/11/11 11:47:30;;;;;;;22.02;10.38;;;;;;;9.38;67.93;101000.13;5030784;28;20070;-67
2021/11/11 11:50:19;;;;;;;18.30;8.93;;;;;;;9.47;67.68;101003.91;5031451;28;20334;-65
2021/11/11 11:53:08;;;;;;;19.30;8.65;;;;;;;9.14;69.13;101001.16;5030776;28;20322;-66
2021/11/11 11:55:56;;;;;;;15.73;7.82;;;;;;;9.19;68.52;100993.59;5031677;28;20130;-66
2021/11/11 11:58:45;;;;;;;19.27;7.82;;;;;;;9.20;68.27;101000.66;5031728;28;20056;-65
2021/11/11 12:01:40;;;;;;;15.80;8.98;;;;;;;9.26;67.40;100987.66;5031666;28;20052;-64
2021/11/11 12:04:44;;;;;;;18.27;9.13;;;;;;;9.17;69.55;100993.72;5028542;28;20510;-65
2021/11/11 12:07:40;;;;;;;16.27;8.95;;;;;;;9.11;70.00;100986.13;5031243;28;20159;-66
2021/11/11 12:10:33;;;;;;;24.58;10.93;;;;;;;9.06;70.94;100986.50;5027288;28;20052;-65
2021/11/11 12:13:30;;;;;;;19.25;9.57;;;;;;;9.16;70.23;100988.47;5024296;28;20060;-66
2021/11/11 12:16:38;;;;;;;;;;;;;;;9.13;69.77;100991.41;5026663;28;20068;-65
2021/11/11 12:29:44;;;;;;;14.38;7.82;;;;;;;8.95;70.55;100978.41;5030763;28;20056;-65
2021/11/11 12:39:03;;;;;;;18.70;8.63;;;;;;;8.45;71.20;100983.06;5033418;28;20064;-67
2021/11/11 12:41:57;;;;;;;17.23;8.68;;;;;;;8.37;71.92;100982.75;5025335;28;20131;-65
2021/11/11 12:45:10;;;;;;;18.85;8.55;;;;;;;8.49;71.79;100979.16;5029626;28;20060;-66
2021/11/11 12:47:58;;;;;;;19.90;8.27;;;;;;;8.42;73.52;100982.44;5030756;28;20056;-66
2021/11/11 12:50:45;;;;;;;13.73;7.35;;;;;;;8.46;73.67;100979.41;5029738;28;20056;-64
2021/11/11 12:53:45;;;;;;;16.70;8.65;;;;;;;8.72;71.81;100979.28;5024498;28;20052;-66
2021/11/11 12:56:36;;;;;;;15.73;7.45;;;;;;;8.71;70.79;100983.78;5024765;28;20064;-64
2021/11/11 12:59:23;;;;;;;21.02;8.50;;;;;;;8.69;71.41;100991.09;5025671;28;20419;-66
2021/11/11 13:02:10;;;;;;;20.13;8.40;;;;;;;8.83;71.20;100982.03;5020553;28;20053;-66
2021/11/11 13:04:58;;;;;;;19.83;8.13;;;;;;;9.10;71.85;100984.44;5029405;28;20060;-65
2021/11/11 13:07:51;;;;;;;23.25;9.20;;;;;;;9.54;69.12;100972.97;5030080;28;20052;-65
2021/11/11 13:10:52;;;;;;;18.55;7.78;;;;;;;9.78;68.53;100975.56;5025536;28;20577;-65
2021/11/11 13:13:39;;;;;;;16.75;8.88;;;;;;;9.84;68.42;100985.81;5028392;28;20053;-66